Time;durP1;ratioP1;P1;durP2;ratioP2;P2;SDS_P1;SDS_P2;PMS_P1;PMS_P2;Temp;Humidity;BMP_temperature;BMP_pressure;BME280_temperature;BME280_humidity;BME280_pressure;Samples;Min_cycle;Max_cycle;Signal;HPM_P1;HPM_P2
2023/01/08 00:02:18;;;;;;;3.92;2.50;;;9.00;99.90;;;;;;5067415;28;20118;-75
2023/01/08 00:04:44;;;;;;;3.40;2.42;;;9.00;99.90;;;;;;5101712;28;20538;-74
2023/01/08 00:07:12;;;;;;;4.20;2.75;;;9.10;99.90;;;;;;5082197;28;20036;-74
2023/01/08 00:09:38;;;;;;;4.60;2.60;;;9.10;99.90;;;;;;5099327;28;20032;-75
2023/01/08 00:12:04;;;;;;;4.78;2.85;;;9.10;99.90;;;;;;5080097;28;20363;-75
2023/01/08 00:14:30;;;;;;;3.90;2.63;;;9.10;99.90;;;;;;5082528;28;20053;-75
2023/01/08 00:16:55;;;;;;;4.22;2.70;;;9.10;99.90;;;;;;5100141;28;20031;-76
2023/01/08 00:19:21;;;;;;;5.70;2.90;;;9.10;99.90;;;;;;5068475;28;20275;-74
2023/01/08 00:21:47;;;;;;;4.75;3.05;;;9.10;99.90;;;;;;5072247;28;20028;-76
2023/01/08 00:24:12;;;;;;;4.35;2.80;;;9.10;99.90;;;;;;5105980;27;20564;-74
2023/01/08 00:26:38;;;;;;;3.72;2.80;;;9.10;99.90;;;;;;5104627;27;20031;-74
2023/01/08 00:29:04;;;;;;;3.65;2.67;;;9.10;99.90;;;;;;5085824;28;20049;-75
2023/01/08 00:31:30;;;;;;;4.55;2.67;;;9.10;99.90;;;;;;5085855;28;20055;-74
2023/01/08 00:33:56;;;;;;;3.78;2.13;;;9.10;99.90;;;;;;5105500;27;20433;-74
2023/01/08 00:36:21;;;;;;;3.92;2.72;;;9.10;99.90;;;;;;5102077;28;20567;-75
2023/01/08 00:38:47;;;;;;;5.57;2.85;;;9.10;99.90;;;;;;5102020;28;20055;-75
2023/01/08 00:41:14;;;;;;;7.95;2.90;;;9.10;99.90;;;;;;5103556;28;20066;-74
2023/01/08 00:43:40;;;;;;;3.78;2.85;;;9.10;99.90;;;;;;5068087;28;20048;-75
2023/01/08 00:46:07;;;;;;;3.88;3.10;;;9.10;99.90;;;;;;5102781;28;20051;-74
2023/01/08 00:48:37;;;;;;;3.25;2.42;;;9.10;99.90;;;;;;5098559;28;20036;-74
2023/01/08 00:51:04;;;;;;;4.18;2.67;;;9.10;99.90;;;;;;5100991;28;20044;-74
2023/01/08 00:53:29;;;;;;;4.47;2.80;;;9.10;99.90;;;;;;5084590;28;20050;-74
2023/01/08 00:56:00;;;;;;;4.72;2.90;;;9.10;99.90;;;;;;5068115;27;20015;-74
2023/01/08 00:58:26;;;;;;;5.90;2.90;;;9.10;99.90;;;;;;5089206;28;20165;-74
2023/01/08 01:00:51;;;;;;;4.57;3.13;;;9.10;99.90;;;;;;5097903;28;21663;-74
2023/01/08 01:03:17;;;;;;;4.45;2.88;;;9.10;99.90;;;;;;5103947;28;20050;-74
2023/01/08 01:05:42;;;;;;;4.05;2.80;;;9.10;99.90;;;;;;5103050;28;20050;-74
2023/01/08 01:08:08;;;;;;;3.95;2.75;;;9.10;99.90;;;;;;5102226;28;20110;-74
2023/01/08 01:10:34;;;;;;;3.60;2.55;;;9.10;99.90;;;;;;5098895;28;20029;-76
2023/01/08 01:13:00;;;;;;;5.32;2.72;;;9.20;99.90;;;;;;5085322;28;20042;-76
2023/01/08 01:15:25;;;;;;;4.30;3.10;;;9.20;99.90;;;;;;5085706;28;20027;-73
2023/01/08 01:17:51;;;;;;;3.75;2.92;;;9.20;99.90;;;;;;5097155;28;20051;-75
2023/01/08 01:20:17;;;;;;;6.30;2.75;;;9.10;99.90;;;;;;5105163;28;20020;-74
2023/01/08 01:22:42;;;;;;;3.20;2.50;;;9.10;99.90;;;;;;5079276;28;20476;-74
2023/01/08 01:25:09;;;;;;;3.78;2.65;;;9.20;99.90;;;;;;5084128;28;20040;-75
2023/01/08 01:27:35;;;;;;;3.97;2.90;;;9.20;99.90;;;;;;5104582;28;20020;-74
2023/01/08 01:30:00;;;;;;;3.83;2.80;;;9.20;99.90;;;;;;5101992;28;20395;-75
2023/01/08 01:32:26;;;;;;;5.07;2.75;;;9.20;99.90;;;;;;5099213;28;20058;-74
2023/01/08 01:34:52;;;;;;;4.53;3.03;;;9.20;99.90;;;;;;5080736;28;20506;-75
2023/01/08 01:37:18;;;;;;;5.15;3.00;;;9.20;99.90;;;;;;5084294;28;20020;-75
2023/01/08 01:39:43;;;;;;;5.55;3.00;;;9.30;99.90;;;;;;5083711;28;20490;-74
2023/01/08 01:42:38;;;;;;;4.32;2.95;;;9.30;99.90;;;;;;5084191;28;20051;-74
2023/01/08 01:45:01;;;;;;;5.38;2.70;;;9.30;99.90;;;;;;5099531;28;20496;-75
2023/01/08 01:47:31;;;;;;;4.15;2.83;;;9.30;99.90;;;;;;5104518;28;20039;-77
2023/01/08 01:50:14;;;;;;;4.03;2.53;;;9.30;99.90;;;;;;5099939;28;20023;-73
2023/01/08 01:53:06;;;;;;;4.13;2.95;;;9.30;99.90;;;;;;5115842;28;20362;-75
2023/01/08 01:55:34;;;;;;;4.38;2.80;;;9.40;99.90;;;;;;5102492;28;20032;-73
2023/01/08 01:58:12;;;;;;;4.18;3.03;;;9.40;99.90;;;;;;5072242;28;20032;-74
2023/01/08 02:00:38;;;;;;;4.40;3.00;;;9.40;99.90;;;;;;5103289;28;20048;-74
2023/01/08 02:03:05;;;;;;;3.88;2.95;;;9.40;99.90;;;;;;5104366;28;20057;-74
2023/01/08 02:05:56;;;;;;;4.38;2.53;;;9.40;99.90;;;;;;5079418;28;20047;-74
2023/01/08 02:08:47;;;;;;;3.60;2.67;;;9.40;99.90;;;;;;5081113;28;20652;-74
2023/01/08 02:11:21;;;;;;;4.20;2.83;;;9.40;99.90;;;;;;5066038;28;20039;-74
2023/01/08 02:13:57;;;;;;;4.57;3.03;;;9.40;99.90;;;;;;5105177;28;20024;-74
2023/01/08 02:16:58;;;;;;;5.47;2.83;;;9.40;99.90;;;;;;5081389;28;20128;-74
2023/01/08 02:19:43;;;;;;;6.05;2.83;;;9.30;99.90;;;;;;5086897;28;20036;-74
2023/01/08 02:22:21;;;;;;;5.03;2.45;;;9.30;99.90;;;;;;5107049;28;20106;-74
2023/01/08 02:25:34;;;;;;;4.50;2.78;;;9.40;99.90;;;;;;5086110;28;20364;-74
2023/01/08 02:28:03;;;;;;;4.80;3.40;;;9.30;99.90;;;;;;5103900;28;20032;-74
2023/01/08 02:30:29;;;;;;;4.25;2.60;;;9.40;99.90;;;;;;5087489;28;20055;-74
2023/01/08 02:32:55;;;;;;;6.00;3.13;;;9.30;99.90;;;;;;5088707;28;20032;-74
2023/01/08 02:35:21;;;;;;;7.95;2.78;;;9.30;99.90;;;;;;5083945;28;20024;-74
2023/01/08 02:37:47;;;;;;;6.07;2.80;;;9.30;99.90;;;;;;5103517;28;20369;-74
2023/01/08 02:40:29;;;;;;;3.35;2.55;;;9.30;99.90;;;;;;5087128;28;20103;-75
2023/01/08 02:43:11;;;;;;;3.60;2.72;;;9.30;99.90;;;;;;5088508;28;20519;-75
2023/01/08 02:45:45;;;;;;;4.72;2.80;;;9.20;99.90;;;;;;5083645;28;20376;-75
2023/01/08 02:48:33;;;;;;;3.97;2.60;;;9.20;99.90;;;;;;5087197;28;20051;-74
2023/01/08 02:51:07;;;;;;;3.75;2.72;;;9.20;99.90;;;;;;5107947;28;20050;-75
2023/01/08 02:53:41;;;;;;;3.88;2.40;;;9.20;99.90;;;;;;5106803;28;20032;-75
2023/01/08 02:56:13;;;;;;;5.03;3.17;;;9.20;99.90;;;;;;5088857;28;20024;-74
2023/01/08 02:58:40;;;;;;;5.38;2.72;;;9.20;99.90;;;;;;5113984;28;20024;-76
2023/01/08 03:01:09;;;;;;;4.25;2.83;;;9.20;99.90;;;;;;5108790;28;20032;-75
2023/01/08 03:03:38;;;;;;;3.60;2.90;;;9.20;99.90;;;;;;5074942;28;20032;-75
2023/01/08 03:06:07;;;;;;;4.30;3.08;;;9.20;99.90;;;;;;5107619;28;20019;-74
2023/01/08 03:08:37;;;;;;;4.50;2.65;;;9.20;99.90;;;;;;5086585;28;20119;-75
2023/01/08 03:11:06;;;;;;;4.05;2.92;;;9.30;99.90;;;;;;5075261;28;20035;-74
2023/01/08 03:13:39;;;;;;;3.05;2.45;;;9.30;99.90;;;;;;5074101;28;20057;-75
2023/01/08 03:16:11;;;;;;;3.47;2.35;;;9.30;99.90;;;;;;5106679;27;20410;-74
2023/01/08 03:18:44;;;;;;;4.47;2.95;;;9.30;99.90;;;;;;5106553;28;20088;-74
2023/01/08 03:21:11;;;;;;;4.07;2.67;;;9.30;99.90;;;;;;5109763;28;20027;-75
2023/01/08 03:23:38;;;;;;;4.68;2.80;;;9.20;99.90;;;;;;5104246;28;20028;-75
2023/01/08 03:26:06;;;;;;;3.90;2.65;;;9.20;99.90;;;;;;5106988;28;20027;-74
2023/01/08 03:28:37;;;;;;;4.57;2.40;;;9.20;99.90;;;;;;5072970;28;20036;-75
2023/01/08 03:31:05;;;;;;;5.43;2.63;;;9.10;99.90;;;;;;5107582;28;20089;-74
2023/01/08 03:33:32;;;;;;;6.22;2.83;;;9.20;99.90;;;;;;5109395;28;20130;-74
2023/01/08 03:36:02;;;;;;;3.92;2.30;;;9.10;99.90;;;;;;5105949;28;20444;-74
2023/01/08 03:38:36;;;;;;;3.97;2.60;;;9.10;99.90;;;;;;5089500;28;20508;-75
2023/01/08 03:41:12;;;;;;;4.30;2.42;;;9.10;99.90;;;;;;5105734;28;20020;-74
2023/01/08 03:43:38;;;;;;;3.30;2.42;;;9.10;99.90;;;;;;5075246;28;20049;-75
2023/01/08 03:46:10;;;;;;;3.22;2.42;;;9.10;99.90;;;;;;5106067;28;20024;-73
2023/01/08 03:48:37;;;;;;;4.57;2.92;;;9.10;99.90;;;;;;5088776;28;20467;-75
2023/01/08 03:51:06;;;;;;;4.07;2.25;;;9.20;99.90;;;;;;5108382;28;20027;-74
2023/01/08 03:53:32;;;;;;;6.38;2.97;;;9.20;99.90;;;;;;5107357;28;20027;-74
2023/01/08 03:55:58;;;;;;;4.22;2.88;;;9.20;99.90;;;;;;5089929;28;20027;-74
2023/01/08 03:58:23;;;;;;;5.80;3.17;;;9.20;99.90;;;;;;5107354;28;20110;-74
2023/01/08 04:00:49;;;;;;;6.53;3.08;;;9.20;99.90;;;;;;5088356;28;20048;-74
2023/01/08 04:03:15;;;;;;;6.05;3.10;;;9.20;99.90;;;;;;5109919;28;20034;-75
2023/01/08 04:05:40;;;;;;;6.80;3.08;;;9.30;99.90;;;;;;5086703;28;20032;-74
2023/01/08 04:08:06;;;;;;;3.70;2.65;;;9.30;99.90;;;;;;5073574;28;20368;-76
2023/01/08 04:10:32;;;;;;;4.65;3.25;;;9.30;99.90;;;;;;5090491;28;20035;-74
2023/01/08 04:12:57;;;;;;;4.40;2.85;;;9.30;99.90;;;;;;5091174;28;20545;-74
2023/01/08 04:15:23;;;;;;;6.72;2.92;;;9.30;99.90;;;;;;5085487;28;20035;-74
2023/01/08 04:17:49;;;;;;;5.47;2.50;;;9.30;99.90;;;;;;5108418;28;20055;-74
2023/01/08 04:20:14;;;;;;;3.72;2.53;;;9.30;99.90;;;;;;5088119;28;20073;-74
2023/01/08 04:22:40;;;;;;;4.38;2.70;;;9.40;99.90;;;;;;5071516;28;20027;-75
2023/01/08 04:25:06;;;;;;;5.35;2.75;;;9.40;99.90;;;;;;5089701;28;20055;-74
2023/01/08 04:27:32;;;;;;;5.53;3.17;;;9.40;99.90;;;;;;5087807;28;20023;-74
2023/01/08 04:29:58;;;;;;;4.68;2.67;;;9.40;99.90;;;;;;5107121;28;20030;-75
2023/01/08 04:32:23;;;;;;;4.57;3.10;;;9.40;99.90;;;;;;5087574;28;20460;-74
2023/01/08 04:34:49;;;;;;;4.03;2.50;;;9.40;99.90;;;;;;5102969;28;20024;-74
2023/01/08 04:37:15;;;;;;;4.38;2.63;;;9.40;99.90;;;;;;5107769;28;20623;-74
2023/01/08 04:39:40;;;;;;;5.88;3.03;;;9.40;99.90;;;;;;5128295;28;20080;-75
2023/01/08 04:42:06;;;;;;;4.95;2.72;;;9.40;99.90;;;;;;5093859;28;20549;-75
2023/01/08 04:44:32;;;;;;;3.08;2.53;;;9.40;99.90;;;;;;5087145;28;20038;-74
2023/01/08 04:46:57;;;;;;;4.43;2.88;;;9.40;99.90;;;;;;5087142;28;20036;-74
2023/01/08 04:49:23;;;;;;;4.55;2.97;;;9.40;99.90;;;;;;5085657;28;20672;-74
2023/01/08 04:51:49;;;;;;;3.45;2.85;;;9.40;99.90;;;;;;5085585;28;20039;-74
2023/01/08 04:54:14;;;;;;;5.25;2.63;;;9.40;99.90;;;;;;5089532;28;20129;-74
2023/01/08 04:56:40;;;;;;;4.70;2.50;;;9.40;99.90;;;;;;5087603;28;20111;-74
2023/01/08 04:59:06;;;;;;;4.18;2.97;;;9.40;99.90;;;;;;5107778;28;20028;-74
2023/01/08 05:01:31;;;;;;;5.45;3.33;;;9.40;99.90;;;;;;5084650;28;20058;-75
2023/01/08 05:04:00;;;;;;;5.63;3.50;;;9.40;99.90;;;;;;5106680;28;20031;-76
2023/01/08 05:06:28;;;;;;;5.55;3.88;;;9.40;99.90;;;;;;5083575;28;20039;-75
2023/01/08 05:08:53;;;;;;;9.65;3.08;;;9.40;99.90;;;;;;5108117;28;20420;-75
2023/01/08 05:11:19;;;;;;;6.13;3.13;;;9.40;99.90;;;;;;5104909;28;20089;-75
2023/01/08 05:13:49;;;;;;;6.00;3.35;;;9.40;99.90;;;;;;5074506;28;20032;-76
2023/01/08 05:16:16;;;;;;;5.45;3.10;;;9.40;99.90;;;;;;5082831;28;20020;-74
2023/01/08 05:18:42;;;;;;;4.32;2.97;;;9.40;99.90;;;;;;5087594;28;20059;-75
2023/01/08 05:21:08;;;;;;;4.53;2.90;;;9.40;99.90;;;;;;5099129;28;20053;-74
2023/01/08 05:23:33;;;;;;;4.22;3.03;;;9.40;99.90;;;;;;5105880;28;20032;-74
2023/01/08 05:26:01;;;;;;;5.03;3.20;;;9.40;99.90;;;;;;5087512;28;20396;-74
2023/01/08 05:28:27;;;;;;;5.38;2.95;;;9.30;99.90;;;;;;5088783;28;20567;-75
2023/01/08 05:30:53;;;;;;;4.72;3.03;;;9.30;99.90;;;;;;5103692;28;20039;-75
2023/01/08 05:33:19;;;;;;;4.78;2.92;;;9.30;99.90;;;;;;5084917;28;20117;-75
2023/01/08 05:35:45;;;;;;;4.57;2.70;;;9.30;99.90;;;;;;5084353;28;20119;-76
2023/01/08 05:38:10;;;;;;;4.85;3.08;;;9.30;99.90;;;;;;5073496;28;20048;-74
2023/01/08 05:40:36;;;;;;;5.07;3.25;;;9.30;99.90;;;;;;5112056;28;20031;-74
2023/01/08 05:43:04;;;;;;;4.82;2.72;;;9.30;99.90;;;;;;5101102;28;20077;-73
2023/01/08 05:45:30;;;;;;;5.00;2.85;;;9.30;99.90;;;;;;5099987;28;20106;-75
2023/01/08 05:47:55;;;;;;;4.65;2.92;;;9.30;99.90;;;;;;5105962;28;20065;-75
2023/01/08 05:50:21;;;;;;;4.85;3.08;;;9.30;99.90;;;;;;5104789;28;20027;-74
2023/01/08 05:52:47;;;;;;;5.72;3.25;;;9.30;99.90;;;;;;5086392;28;20031;-75
2023/01/08 05:55:12;;;;;;;3.70;2.67;;;9.30;99.90;;;;;;5089395;28;20035;-74
2023/01/08 05:57:38;;;;;;;3.80;2.70;;;9.30;99.90;;;;;;5109501;28;20026;-75
2023/01/08 06:00:06;;;;;;;4.55;2.65;;;9.30;99.90;;;;;;5107552;28;20031;-76
2023/01/08 06:02:32;;;;;;;4.38;2.72;;;9.40;99.90;;;;;;5105420;28;20074;-76
2023/01/08 06:04:58;;;;;;;4.45;2.80;;;9.40;99.90;;;;;;5106539;28;20031;-74
2023/01/08 06:07:24;;;;;;;4.93;3.00;;;9.40;99.90;;;;;;5088431;28;20461;-75
2023/01/08 06:09:50;;;;;;;4.57;2.85;;;9.40;99.90;;;;;;5107867;28;20028;-74
2023/01/08 06:12:15;;;;;;;4.82;3.03;;;9.30;99.90;;;;;;5096708;28;20100;-75
2023/01/08 06:14:41;;;;;;;4.63;2.90;;;9.30;99.90;;;;;;5092061;28;20027;-74
2023/01/08 06:17:07;;;;;;;5.35;3.08;;;9.30;99.90;;;;;;5095252;28;20035;-73
2023/01/08 06:19:32;;;;;;;5.30;3.30;;;9.30;99.90;;;;;;5076321;28;20027;-74
2023/01/08 06:21:58;;;;;;;6.57;2.50;;;9.40;99.90;;;;;;5071675;28;20019;-74
2023/01/08 06:24:24;;;;;;;6.28;3.28;;;9.30;99.90;;;;;;5107936;28;20518;-75
2023/01/08 06:26:49;;;;;;;4.53;2.67;;;9.40;99.90;;;;;;5104607;28;20086;-74
2023/01/08 06:29:15;;;;;;;5.32;2.55;;;9.30;99.90;;;;;;5092338;28;20042;-75
2023/01/08 06:31:41;;;;;;;4.22;2.80;;;9.30;99.90;;;;;;5107886;28;20035;-73
2023/01/08 06:34:06;;;;;;;5.53;3.08;;;9.30;99.90;;;;;;5110869;28;20506;-74
2023/01/08 06:36:32;;;;;;;4.47;2.45;;;9.30;99.90;;;;;;5091899;28;20514;-75
2023/01/08 06:38:58;;;;;;;4.22;2.88;;;9.30;99.90;;;;;;5110309;28;20062;-74
2023/01/08 06:41:23;;;;;;;3.67;2.42;;;9.30;99.90;;;;;;5110844;27;20376;-75
2023/01/08 06:43:49;;;;;;;4.30;2.97;;;9.30;99.90;;;;;;5109218;28;20398;-75
2023/01/08 06:46:15;;;;;;;5.68;3.05;;;9.30;99.90;;;;;;5109501;28;20058;-75
2023/01/08 06:48:41;;;;;;;4.68;2.55;;;9.30;99.90;;;;;;5088476;28;20487;-75
2023/01/08 06:51:06;;;;;;;7.47;4.32;;;9.30;99.90;;;;;;5091985;28;20467;-75
2023/01/08 06:53:32;;;;;;;8.23;4.50;;;9.30;99.90;;;;;;5092656;28;20126;-75
2023/01/08 06:55:58;;;;;;;7.82;3.92;;;9.40;99.90;;;;;;5092776;28;20023;-74
2023/01/08 06:58:26;;;;;;;5.43;3.53;;;9.30;99.90;;;;;;5090192;28;20063;-74
2023/01/08 07:00:52;;;;;;;5.50;3.75;;;9.30;99.90;;;;;;5105537;28;20439;-75
2023/01/08 07:03:18;;;;;;;5.40;3.90;;;9.30;99.90;;;;;;5102217;28;20110;-75
2023/01/08 07:05:44;;;;;;;7.93;3.28;;;9.30;99.90;;;;;;5092085;28;20489;-75
2023/01/08 07:08:14;;;;;;;7.22;3.50;;;9.30;99.90;;;;;;5106121;28;20039;-75
2023/01/08 07:10:41;;;;;;;5.43;3.17;;;9.30;99.90;;;;;;5110219;28;20450;-75
2023/01/08 07:13:08;;;;;;;5.22;3.13;;;9.30;99.90;;;;;;5089412;28;20048;-75
2023/01/08 07:15:36;;;;;;;5.85;3.15;;;9.30;99.90;;;;;;5110015;28;20036;-76
2023/01/08 07:18:09;;;;;;;4.90;2.60;;;9.30;99.90;;;;;;5102505;28;20030;-75
2023/01/08 07:20:36;;;;;;;4.50;3.05;;;9.30;99.90;;;;;;5090807;28;20395;-75
2023/01/08 07:23:08;;;;;;;5.13;2.88;;;9.30;99.90;;;;;;5090401;27;20522;-76
2023/01/08 07:25:34;;;;;;;6.40;2.85;;;9.30;99.90;;;;;;5089087;28;20144;-76
2023/01/08 07:28:00;;;;;;;5.60;3.15;;;9.30;99.90;;;;;;5090752;28;20138;-75
2023/01/08 07:30:26;;;;;;;4.80;2.72;;;9.30;99.90;;;;;;5107427;28;20035;-76
2023/01/08 07:32:52;;;;;;;5.85;3.08;;;9.30;99.90;;;;;;5105500;28;20770;-75
2023/01/08 07:35:18;;;;;;;4.32;3.20;;;9.30;99.90;;;;;;5108272;28;20381;-76
2023/01/08 07:37:44;;;;;;;4.10;2.85;;;9.30;99.90;;;;;;5085018;28;20047;-76
2023/01/08 07:40:10;;;;;;;6.45;3.45;;;9.30;99.90;;;;;;5091914;28;20043;-75
2023/01/08 07:42:37;;;;;;;4.05;2.70;;;9.40;99.90;;;;;;5087641;28;20027;-76
2023/01/08 07:45:03;;;;;;;5.63;2.75;;;9.40;99.90;;;;;;5108614;28;20040;-75
2023/01/08 07:47:29;;;;;;;4.68;2.70;;;9.40;99.90;;;;;;5087903;28;20501;-75
2023/01/08 07:49:54;;;;;;;4.47;2.50;;;9.40;99.90;;;;;;5087600;28;20055;-75
2023/01/08 07:52:20;;;;;;;4.35;2.75;;;9.40;99.90;;;;;;5104939;28;20062;-76
2023/01/08 07:54:46;;;;;;;3.90;2.55;;;9.40;99.90;;;;;;5088763;28;20032;-76
2023/01/08 07:57:11;;;;;;;4.50;2.65;;;9.40;99.90;;;;;;5090637;28;20027;-75
2023/01/08 07:59:37;;;;;;;6.82;3.25;;;9.40;99.90;;;;;;5093305;28;20085;-75
2023/01/08 08:02:03;;;;;;;4.32;3.00;;;9.50;99.90;;;;;;5086080;28;20270;-77
2023/01/08 08:04:28;;;;;;;6.75;3.13;;;9.50;99.90;;;;;;5106641;28;20038;-74
2023/01/08 08:06:54;;;;;;;5.43;2.75;;;9.50;99.90;;;;;;5108403;28;20407;-75
2023/01/08 08:09:20;;;;;;;8.27;3.15;;;9.50;99.90;;;;;;5108187;28;20323;-75
2023/01/08 08:11:45;;;;;;;5.70;3.30;;;9.50;99.90;;;;;;5084875;28;20036;-72
2023/01/08 08:14:11;;;;;;;6.60;2.92;;;9.40;99.90;;;;;;5109660;28;20131;-72
2023/01/08 08:16:37;;;;;;;4.32;2.78;;;9.40;99.90;;;;;;5106474;28;20079;-72
2023/01/08 08:19:03;;;;;;;4.82;3.42;;;9.40;99.90;;;;;;5091036;28;20398;-72
2023/01/08 08:21:29;;;;;;;6.20;3.55;;;9.40;99.90;;;;;;5078078;28;20023;-72
2023/01/08 08:23:55;;;;;;;6.05;3.17;;;9.40;99.90;;;;;;5085734;28;20038;-72
2023/01/08 08:26:21;;;;;;;4.28;3.20;;;9.40;99.90;;;;;;5110539;28;20024;-72
2023/01/08 08:28:47;;;;;;;6.63;3.55;;;9.30;99.90;;;;;;5106636;27;20479;-72
2023/01/08 08:31:13;;;;;;;5.07;3.08;;;9.30;99.90;;;;;;5106641;28;20042;-72
2023/01/08 08:33:39;;;;;;;4.47;3.08;;;9.30;99.90;;;;;;5106091;28;20028;-75
2023/01/08 08:36:05;;;;;;;4.50;3.25;;;9.30;99.90;;;;;;5087389;28;20138;-76
2023/01/08 08:38:30;;;;;;;5.55;3.08;;;9.30;99.90;;;;;;5101910;27;20027;-76
2023/01/08 08:40:56;;;;;;;5.15;3.08;;;9.30;99.90;;;;;;5103877;27;20085;-75
2023/01/08 08:43:22;;;;;;;6.03;3.60;;;9.30;99.90;;;;;;5067206;28;20020;-74
2023/01/08 08:45:47;;;;;;;7.57;4.38;;;9.40;99.90;;;;;;5086129;28;20037;-75
2023/01/08 08:48:15;;;;;;;8.10;4.32;;;9.40;99.90;;;;;;5087487;28;20062;-72
2023/01/08 08:50:41;;;;;;;7.53;4.47;;;9.40;99.90;;;;;;5104050;28;20432;-76
2023/01/08 08:53:09;;;;;;;6.53;3.47;;;9.40;99.90;;;;;;5089506;28;20035;-75
2023/01/08 08:55:35;;;;;;;6.22;3.78;;;9.40;99.90;;;;;;5084931;28;20038;-75
2023/01/08 08:58:10;;;;;;;7.57;4.03;;;9.40;99.90;;;;;;5084858;28;20024;-75
2023/01/08 09:00:37;;;;;;;5.63;3.33;;;9.40;99.90;;;;;;5083029;28;20028;-76
2023/01/08 09:03:03;;;;;;;5.15;3.50;;;9.40;99.90;;;;;;5085238;28;20245;-77
2023/01/08 09:05:29;;;;;;;5.93;3.47;;;9.40;99.90;;;;;;5105184;28;20073;-77
2023/01/08 09:07:55;;;;;;;5.57;3.55;;;9.40;99.90;;;;;;5082737;28;20024;-74
2023/01/08 09:10:21;;;;;;;5.97;3.75;;;9.40;99.90;;;;;;5082454;28;20470;-75
2023/01/08 09:12:47;;;;;;;4.53;3.28;;;9.40;99.90;;;;;;5105025;28;20036;-74
2023/01/08 09:15:13;;;;;;;5.03;3.25;;;9.40;99.90;;;;;;5104025;28;20027;-75
2023/01/08 09:17:39;;;;;;;4.90;3.42;;;9.40;99.90;;;;;;5083653;28;20024;-74
2023/01/08 09:20:05;;;;;;;6.50;3.60;;;9.50;99.90;;;;;;5086661;28;20506;-75
2023/01/08 09:22:31;;;;;;;3.72;2.67;;;9.50;99.90;;;;;;5102628;28;20066;-75
2023/01/08 09:24:59;;;;;;;4.65;3.00;;;9.50;99.90;;;;;;5104685;28;20083;-76
2023/01/08 09:27:25;;;;;;;6.82;2.85;;;9.50;99.90;;;;;;5089423;28;20051;-77
2023/01/08 09:29:51;;;;;;;4.72;3.00;;;9.50;99.90;;;;;;5108399;28;20058;-75
2023/01/08 09:32:16;;;;;;;4.95;3.17;;;9.50;99.90;;;;;;5087167;28;21449;-76
2023/01/08 09:34:42;;;;;;;4.05;2.60;;;9.50;99.90;;;;;;5105213;28;20094;-75
2023/01/08 09:37:08;;;;;;;5.38;2.80;;;9.50;99.90;;;;;;5083463;28;20057;-74
2023/01/08 09:39:35;;;;;;;5.18;2.80;;;9.50;99.90;;;;;;5090623;28;20019;-75
2023/01/08 09:42:03;;;;;;;3.47;2.40;;;9.50;99.90;;;;;;5082075;28;20213;-76
2023/01/08 09:44:37;;;;;;;4.82;2.97;;;9.60;99.90;;;;;;5085321;28;20031;-76
2023/01/08 09:47:04;;;;;;;5.25;2.70;;;9.60;99.90;;;;;;5106333;28;20027;-77
2023/01/08 09:49:42;;;;;;;7.82;3.25;;;9.50;99.90;;;;;;5084423;28;20043;-77
2023/01/08 09:52:12;;;;;;;4.97;3.10;;;9.60;99.90;;;;;;5085289;28;20082;-75
2023/01/08 09:54:39;;;;;;;3.95;2.67;;;9.60;99.90;;;;;;5104830;28;20031;-75
2023/01/08 09:57:05;;;;;;;4.68;2.70;;;9.60;99.90;;;;;;5107741;28;20016;-76
2023/01/08 09:59:31;;;;;;;5.47;2.90;;;9.60;99.90;;;;;;5071981;28;20165;-75
2023/01/08 10:01:57;;;;;;;3.75;2.50;;;9.60;99.90;;;;;;5071261;28;20119;-76
2023/01/08 10:04:28;;;;;;;3.53;2.60;;;9.70;99.90;;;;;;5090934;28;21175;-75
2023/01/08 10:07:10;;;;;;;5.27;2.87;;;9.70;99.90;;;;;;5084111;28;20027;-75
2023/01/08 10:09:36;;;;;;;3.97;2.63;;;9.70;99.90;;;;;;5088406;28;20321;-74
2023/01/08 10:12:04;;;;;;;3.55;2.35;;;9.70;99.90;;;;;;5106736;28;20026;-75
2023/01/08 10:14:36;;;;;;;3.50;2.60;;;9.70;99.90;;;;;;5091239;28;20097;-75
2023/01/08 10:17:37;;;;;;;3.58;2.53;;;9.70;99.90;;;;;;5090448;28;20023;-75
2023/01/08 10:20:18;;;;;;;5.63;2.28;;;9.70;99.90;;;;;;5091214;28;20019;-74
2023/01/08 10:22:46;;;;;;;4.05;2.10;;;9.80;99.90;;;;;;5072280;27;20040;-75
2023/01/08 10:25:18;;;;;;;5.07;2.50;;;9.80;99.90;;;;;;5110468;28;20902;-74
2023/01/08 10:27:53;;;;;;;4.82;2.60;;;9.80;99.90;;;;;;5106199;28;20122;-75
2023/01/08 10:30:38;;;;;;;3.83;2.58;;;9.80;99.90;;;;;;5071755;28;20027;-75
2023/01/08 10:33:10;;;;;;;5.32;2.38;;;9.80;99.90;;;;;;5087436;28;20034;-76
2023/01/08 10:35:40;;;;;;;2.92;2.08;;;9.80;99.90;;;;;;5107860;27;20028;-76
2023/01/08 10:38:20;;;;;;;4.90;2.50;;;9.80;99.90;;;;;;5087524;27;20110;-76
2023/01/08 10:40:48;;;;;;;5.90;2.30;;;9.80;99.90;;;;;;5086938;28;20023;-76
2023/01/08 10:43:26;;;;;;;4.63;2.58;;;9.80;99.90;;;;;;5086122;27;20031;-76
2023/01/08 10:46:05;;;;;;;3.83;1.80;;;9.90;99.90;;;;;;5089204;28;20461;-76
2023/01/08 10:48:45;;;;;;;4.00;1.70;;;9.90;99.90;;;;;;5091595;28;20031;-75
2023/01/08 10:51:20;;;;;;;8.02;2.03;;;9.90;99.90;;;;;;5089927;28;20111;-73
2023/01/08 10:53:47;;;;;;;4.80;1.88;;;9.90;99.90;;;;;;5091151;28;20036;-78
2023/01/08 10:56:26;;;;;;;2.75;1.45;;;9.90;99.90;;;;;;5076514;28;20495;-76
2023/01/08 10:58:52;;;;;;;2.70;1.60;;;9.90;99.90;;;;;;5090755;28;20037;-76
2023/01/08 11:01:30;;;;;;;3.00;1.80;;;9.90;99.90;;;;;;5108013;28;20043;-77
2023/01/08 11:04:04;;;;;;;3.45;1.58;;;9.90;99.90;;;;;;5084466;28;20031;-76
2023/01/08 11:06:38;;;;;;;4.45;1.98;;;9.90;99.90;;;;;;5072818;28;20039;-75
2023/01/08 11:09:36;;;;;;;4.07;2.03;;;9.90;99.90;;;;;;5084455;28;20023;-77
2023/01/08 11:12:02;;;;;;;5.60;2.58;;;9.90;99.90;;;;;;5092618;27;20135;-77
2023/01/08 11:14:33;;;;;;;3.38;2.05;;;9.90;99.90;;;;;;5109021;28;20164;-76
2023/01/08 11:16:59;;;;;;;4.82;2.60;;;9.90;99.90;;;;;;5093493;28;20028;-77
2023/01/08 11:19:30;;;;;;;5.43;2.35;;;9.90;99.90;;;;;;5115528;28;20026;-77
2023/01/08 11:22:03;;;;;;;3.50;2.03;;;9.90;99.90;;;;;;5101831;28;20042;-80
2023/01/08 11:24:33;;;;;;;4.18;2.45;;;9.90;99.90;;;;;;5094920;28;20523;-79
2023/01/08 11:27:11;;;;;;;4.20;2.38;;;9.80;99.90;;;;;;5104840;27;20039;-81
2023/01/08 11:30:01;;;;;;;5.30;2.40;;;9.90;99.90;;;;;;5086557;28;20055;-79
2023/01/08 11:32:44;;;;;;;3.47;2.38;;;10.00;99.90;;;;;;5089356;28;20035;-79
2023/01/08 11:35:27;;;;;;;3.88;2.25;;;10.10;99.90;;;;;;5075611;28;20035;-76
2023/01/08 11:37:58;;;;;;;3.30;2.33;;;10.20;99.90;;;;;;5111127;28;20451;-77
2023/01/08 11:40:30;;;;;;;;;;;10.20;99.90;;;;;;5067918;28;20047;-77
2023/01/08 11:43:23;;;;;;;4.45;2.60;;;10.30;99.90;;;;;;5087893;27;20438;-76
2023/01/08 11:46:04;;;;;;;4.43;2.80;;;10.30;99.90;;;;;;5087878;28;20027;-77
2023/01/08 11:48:30;;;;;;;2.65;2.10;;;10.20;99.90;;;;;;5091152;28;20032;-75
2023/01/08 11:50:58;;;;;;;10.20;3.08;;;10.10;99.90;;;;;;5109905;27;20095;-76
2023/01/08 11:53:30;;;;;;;4.40;2.08;;;10.10;99.90;;;;;;5106575;28;20032;-76
2023/01/08 11:56:08;;;;;;;3.00;2.35;;;10.10;99.90;;;;;;5104478;27;20078;-76
2023/01/08 11:58:56;;;;;;;4.13;2.00;;;10.00;99.90;;;;;;5073733;28;20429;-78
2023/01/08 12:02:06;;;;;;;3.17;1.90;;;10.10;99.90;;;;;;5100722;28;20082;-76
2023/01/08 12:04:54;;;;;;;4.10;1.90;;;10.10;99.90;;;;;;5086740;28;20020;-76
2023/01/08 12:08:10;;;;;;;4.13;1.80;;;10.10;99.90;;;;;;5109997;28;20427;-76
2023/01/08 12:10:42;;;;;;;3.13;1.63;;;10.10;99.90;;;;;;5044228;28;20037;-74
2023/01/08 12:13:16;;;;;;;3.47;1.70;;;10.00;99.90;;;;;;5014095;28;20036;-77
2023/01/08 12:15:48;;;;;;;3.42;1.95;;;10.00;99.90;;;;;;5016658;28;20033;-78
2023/01/08 12:18:18;;;;;;;4.38;1.40;;;10.00;99.90;;;;;;5014547;28;20033;-76
2023/01/08 12:21:12;;;;;;;2.58;1.63;;;10.00;99.90;;;;;;5025255;28;20053;-76
2023/01/08 12:24:26;;;;;;;3.65;1.98;;;9.90;99.90;;;;;;5006986;28;20037;-76
2023/01/08 12:27:03;;;;;;;6.03;1.83;;;10.00;99.90;;;;;;4966190;28;20050;-77
2023/01/08 12:30:00;;;;;;;2.13;1.45;;;9.90;99.90;;;;;;4967598;28;20057;-77
2023/01/08 12:32:46;;;;;;;2.20;1.23;;;9.90;99.90;;;;;;4951931;28;20066;-78
2023/01/08 12:35:24;;;;;;;4.07;1.27;;;10.00;99.90;;;;;;4966894;28;20046;-75
2023/01/08 12:38:02;;;;;;;3.78;1.20;;;10.00;99.90;;;;;;4961668;28;20035;-78
2023/01/08 12:40:32;;;;;;;3.03;1.25;;;10.00;99.90;;;;;;4974608;28;20035;-75
2023/01/08 12:43:01;;;;;;;3.65;1.55;;;10.00;99.90;;;;;;5021943;28;20111;-75
2023/01/08 12:45:31;;;;;;;2.70;1.45;;;10.00;99.90;;;;;;5021086;28;20539;-76
2023/01/08 12:48:07;;;;;;;2.40;1.48;;;10.00;99.90;;;;;;4986328;28;20041;-75
2023/01/08 12:50:45;;;;;;;2.92;1.77;;;10.10;99.90;;;;;;4988325;28;20078;-77
2023/01/08 12:53:30;;;;;;;2.40;1.55;;;10.20;99.90;;;;;;4980565;28;20223;-76
2023/01/08 12:56:07;;;;;;;3.10;1.75;;;10.30;99.90;;;;;;4997612;28;20046;-75
2023/01/08 12:58:41;;;;;;;2.95;1.30;;;10.30;99.90;;;;;;4993278;28;20037;-75
2023/01/08 13:01:25;;;;;;;3.75;1.75;;;10.30;99.90;;;;;;4998675;28;20620;-76
2023/01/08 13:03:53;;;;;;;2.58;1.83;;;10.30;99.90;;;;;;5049387;28;20048;-75
2023/01/08 13:06:20;;;;;;;2.75;1.58;;;10.30;99.90;;;;;;5059738;28;20124;-75
2023/01/08 13:08:50;;;;;;;4.82;2.10;;;10.30;99.90;;;;;;5076687;28;20036;-76
2023/01/08 13:11:49;;;;;;;3.58;1.85;;;10.40;99.90;;;;;;5082057;28;20105;-74